createdAt,value
2022-09-28T00:01:20.231Z,4.93
2022-09-28T00:03:48.694Z,4.78
2022-09-28T00:06:18.815Z,4.60
2022-09-28T00:08:46.116Z,4.43
2022-09-28T00:11:15.718Z,4.82
2022-09-28T00:13:44.055Z,4.63
2022-09-28T00:16:17.372Z,4.70
2022-09-28T00:18:44.994Z,4.00
2022-09-28T00:21:17.587Z,4.25
2022-09-28T00:24:04.008Z,4.10
2022-09-28T00:26:33.034Z,3.83
2022-09-28T00:29:01.978Z,3.63
2022-09-28T00:31:32.924Z,3.00
2022-09-28T00:34:02.002Z,2.97
2022-09-28T00:36:30.445Z,3.25
2022-09-28T00:38:58.356Z,2.90
2022-09-28T00:41:27.189Z,2.50
2022-09-28T00:44:15.294Z,2.70
2022-09-28T00:46:42.386Z,3.63
2022-09-28T00:49:14.937Z,3.28
2022-09-28T00:51:44.041Z,3.17
2022-09-28T00:54:12.823Z,2.75
2022-09-28T00:56:43.165Z,3.40
2022-09-28T00:59:11.086Z,4.30
2022-09-28T01:01:38.478Z,3.35
2022-09-28T01:04:07.342Z,2.92
2022-09-28T01:06:36.605Z,4.43
2022-09-28T01:09:07.700Z,3.17
2022-09-28T01:14:08.780Z,4.90
2022-09-28T01:17:15.480Z,3.60
2022-09-28T01:20:47.517Z,2.80
2022-09-28T01:23:53.415Z,2.88
2022-09-28T01:27:14.131Z,2.95
2022-09-28T01:29:55.515Z,3.80
2022-09-28T01:32:35.784Z,3.35
2022-09-28T01:35:11.748Z,3.60
2022-09-28T01:37:57.112Z,3.45
2022-09-28T01:40:27.969Z,3.90
2022-09-28T01:43:01.265Z,3.80
2022-09-28T01:45:38.765Z,4.22
2022-09-28T01:48:08.762Z,3.47
2022-09-28T01:50:41.333Z,2.97
2022-09-28T01:53:23.354Z,2.42
2022-09-28T01:55:57.831Z,3.42
2022-09-28T01:58:34.875Z,2.95
2022-09-28T02:01:06.522Z,2.90
2022-09-28T02:03:57.415Z,3.80
2022-09-28T02:06:36.562Z,3.30
2022-09-28T02:09:10.799Z,3.88
2022-09-28T02:11:46.701Z,4.13
2022-09-28T02:14:17.758Z,3.65
2022-09-28T02:16:50.770Z,4.00
2022-09-28T02:19:26.883Z,3.78
2022-09-28T02:22:33.775Z,3.17
2022-09-28T02:25:22.694Z,3.13
2022-09-28T02:27:58.693Z,3.10
2022-09-28T02:30:27.284Z,4.38
2022-09-28T02:32:58.246Z,4.32
2022-09-28T02:35:25.664Z,3.78
2022-09-28T02:37:55.138Z,3.95
2022-09-28T02:40:25.610Z,3.75
2022-09-28T02:43:34.376Z,3.72
2022-09-28T02:46:43.023Z,4.13
2022-09-28T02:49:37.513Z,3.10
2022-09-28T02:52:50.851Z,3.15
2022-09-28T02:55:48.986Z,2.85
2022-09-28T02:58:49.358Z,2.55
2022-09-28T03:02:00.216Z,3.42
2022-09-28T03:05:06.197Z,4.20
2022-09-28T03:07:40.146Z,3.45
2022-09-28T03:10:20.542Z,3.50
2022-09-28T03:12:49.361Z,3.23
2022-09-28T03:15:24.566Z,3.53
2022-09-28T03:17:52.763Z,3.05
2022-09-28T03:20:20.688Z,3.40
2022-09-28T03:23:05.910Z,2.72
2022-09-28T03:25:34.931Z,3.38
2022-09-28T03:28:02.724Z,3.78
2022-09-28T03:33:00.936Z,4.13
2022-09-28T03:35:30.373Z,3.47
2022-09-28T03:37:57.626Z,4.72
2022-09-28T03:40:27.356Z,10.75
2022-09-28T03:42:54.436Z,4.40
2022-09-28T03:45:21.733Z,4.40
2022-09-28T03:47:50.693Z,4.63
2022-09-28T03:50:19.005Z,4.03
2022-09-28T03:52:46.122Z,5.35
2022-09-28T03:55:13.153Z,4.70
2022-09-28T03:57:40.239Z,4.70
2022-09-28T04:00:08.238Z,4.75
2022-09-28T04:02:40.695Z,5.65
2022-09-28T04:05:09.401Z,6.07
2022-09-28T04:07:37.938Z,6.18
2022-09-28T04:10:05.278Z,6.07
2022-09-28T04:12:32.845Z,7.15
2022-09-28T04:14:59.823Z,5.30
2022-09-28T04:17:26.956Z,6.18
2022-09-28T04:19:54.971Z,6.07
2022-09-28T04:22:40.105Z,5.57
2022-09-28T04:25:07.592Z,6.25
2022-09-28T04:27:53.057Z,6.03
2022-09-28T04:30:20.501Z,6.72
2022-09-28T04:32:47.926Z,6.95
2022-09-28T04:35:15.761Z,7.65
2022-09-28T04:37:42.815Z,7.65
2022-09-28T04:40:10.438Z,6.45
2022-09-28T04:42:38.456Z,5.63
2022-09-28T04:45:06.566Z,5.90
2022-09-28T04:47:37.048Z,7.25
2022-09-28T04:50:29.147Z,8.07
2022-09-28T04:53:14.773Z,7.03
2022-09-28T04:55:42.271Z,7.13
2022-09-28T04:58:09.406Z,7.97
2022-09-28T05:00:37.057Z,6.95
2022-09-28T05:03:28.070Z,6.60
2022-09-28T05:06:28.080Z,7.43
2022-09-28T05:09:00.739Z,6.40
2022-09-28T05:11:27.902Z,7.65
2022-09-28T05:13:55.335Z,9.18
2022-09-28T05:16:22.348Z,8.10
2022-09-28T05:19:07.887Z,9.25
2022-09-28T05:21:35.099Z,13.02
2022-09-28T05:24:07.887Z,8.35
2022-09-28T05:26:37.864Z,6.53
2022-09-28T05:29:07.167Z,7.10
2022-09-28T05:32:03.663Z,5.32
2022-09-28T05:34:51.868Z,5.22
2022-09-28T05:37:25.348Z,5.72
2022-09-28T05:39:56.007Z,5.07
2022-09-28T05:42:23.378Z,6.50
2022-09-28T05:44:50.379Z,5.65
2022-09-28T05:47:17.433Z,5.25
2022-09-28T05:49:44.970Z,6.00
2022-09-28T05:52:12.821Z,6.68
2022-09-28T05:54:40.131Z,5.93
2022-09-28T05:57:07.627Z,6.57
2022-09-28T05:59:37.904Z,5.63
2022-09-28T06:02:07.392Z,5.85
2022-09-28T06:04:34.856Z,5.80
2022-09-28T06:07:01.842Z,5.82
2022-09-28T06:09:28.847Z,4.90
2022-09-28T06:12:20.215Z,4.43
2022-09-28T06:14:55.322Z,5.07
2022-09-28T06:17:23.766Z,30.98
2022-09-28T06:20:11.863Z,6.47
2022-09-28T06:22:56.436Z,5.07
2022-09-28T06:25:27.735Z,7.82
2022-09-28T06:27:59.545Z,6.18
2022-09-28T06:30:28.215Z,6.07
2022-09-28T06:32:57.349Z,5.10
2022-09-28T06:35:26.454Z,4.28
2022-09-28T06:37:54.367Z,4.13
2022-09-28T06:40:22.870Z,4.72
2022-09-28T06:42:58.584Z,7.25
2022-09-28T06:45:44.336Z,7.10
2022-09-28T06:48:33.048Z,5.60
2022-09-28T06:51:02.667Z,9.43
2022-09-28T06:53:59.180Z,5.68
2022-09-28T06:57:02.007Z,4.93
2022-09-28T06:59:31.508Z,6.20
2022-09-28T07:02:00.300Z,5.68
2022-09-28T07:05:00.088Z,4.80
2022-09-28T07:07:45.419Z,5.88
2022-09-28T07:10:50.111Z,6.70
2022-09-28T07:13:48.647Z,6.40
2022-09-28T07:16:22.843Z,6.32
2022-09-28T07:18:54.198Z,7.50
2022-09-28T07:21:29.091Z,5.78
2022-09-28T07:24:00.599Z,6.35
2022-09-28T07:29:36.110Z,6.28
2022-09-28T07:32:35.188Z,6.30
2022-09-28T07:35:16.302Z,5.07
2022-09-28T07:37:49.810Z,6.55
2022-09-28T07:40:35.531Z,4.65
2022-09-28T07:43:07.100Z,4.07
2022-09-28T07:45:38.406Z,4.50
2022-09-28T07:48:05.962Z,4.63
2022-09-28T07:50:42.515Z,5.32
2022-09-28T07:53:16.050Z,5.70
2022-09-28T07:56:08.877Z,5.40
2022-09-28T07:59:02.037Z,5.30
2022-09-28T08:01:49.680Z,5.43
2022-09-28T08:04:17.745Z,6.00
2022-09-28T08:06:48.417Z,7.32
2022-09-28T08:09:15.783Z,4.75
2022-09-28T08:12:15.220Z,4.50
2022-09-28T08:15:02.395Z,6.60
2022-09-28T08:17:47.912Z,6.18
2022-09-28T08:20:34.597Z,7.40
2022-09-28T08:23:06.523Z,7.03
2022-09-28T08:25:36.975Z,6.10
2022-09-28T08:28:09.058Z,7.90
2022-09-28T08:30:45.444Z,7.38
2022-09-28T08:33:33.309Z,7.20
2022-09-28T08:36:19.221Z,7.28
2022-09-28T08:39:06.481Z,9.35
2022-09-28T08:45:28.579Z,7.57
2022-09-28T08:48:33.984Z,7.65
2022-09-28T08:51:31.896Z,7.63
2022-09-28T08:55:00.327Z,10.70
2022-09-28T08:57:45.481Z,7.63
2022-09-28T09:02:49.985Z,6.97
2022-09-28T09:05:30.274Z,6.50
2022-09-28T09:08:39.892Z,6.55
2022-09-28T09:12:06.105Z,4.25
2022-09-28T09:14:57.904Z,4.40
2022-09-28T09:20:50.954Z,4.03
2022-09-28T09:23:56.793Z,4.80
2022-09-28T09:26:39.602Z,4.07
2022-09-28T09:29:44.804Z,4.00
2022-09-28T09:32:41.337Z,3.72
2022-09-28T09:49:01.300Z,4.10
2022-09-28T09:51:48.459Z,5.35
2022-09-28T09:54:28.775Z,5.18
2022-09-28T09:57:13.186Z,4.23
2022-09-28T10:00:04.404Z,1.67
2022-09-28T10:03:03.378Z,2.05
2022-09-28T10:05:39.320Z,1.60
2022-09-28T10:08:18.815Z,1.83
2022-09-28T10:10:55.211Z,3.80
2022-09-28T10:13:26.111Z,1.63
2022-09-28T10:15:55.601Z,1.55
2022-09-28T10:18:31.714Z,1.52
2022-09-28T10:21:20.799Z,1.95
2022-09-28T10:23:58.030Z,1.58
2022-09-28T10:26:37.842Z,1.90
2022-09-28T10:29:15.965Z,1.65
2022-09-28T10:31:51.485Z,1.27
2022-09-28T10:34:48.724Z,1.25
2022-09-28T10:37:19.837Z,1.30
2022-09-28T10:40:40.229Z,2.60
2022-09-28T10:43:27.729Z,1.40
2022-09-28T10:46:08.456Z,1.10
2022-09-28T10:49:01.093Z,2.05
2022-09-28T10:51:45.404Z,1.10
2022-09-28T10:54:19.338Z,1.27
2022-09-28T10:56:49.710Z,1.10
2022-09-28T10:59:37.415Z,1.20
2022-09-28T11:02:37.329Z,1.10
2022-09-28T11:05:22.004Z,1.40
2022-09-28T11:07:52.038Z,1.50
2022-09-28T11:10:32.948Z,1.00
2022-09-28T11:13:10.631Z,1.42
2022-09-28T11:15:43.937Z,1.33
2022-09-28T11:18:22.644Z,1.40
2022-09-28T11:20:50.626Z,1.67
2022-09-28T11:23:31.269Z,1.35
2022-09-28T11:26:09.224Z,1.83
2022-09-28T11:28:38.465Z,2.00
2022-09-28T11:31:12.607Z,1.10
2022-09-28T11:34:05.760Z,1.17
2022-09-28T11:37:37.490Z,1.35
2022-09-28T11:40:55.516Z,1.00
2022-09-28T11:44:08.107Z,3.55
2022-09-28T11:47:33.663Z,1.10
2022-09-28T11:50:26.389Z,1.20
2022-09-28T11:53:13.162Z,0.95
2022-09-28T11:55:54.662Z,1.17
2022-09-28T11:58:56.004Z,1.17
2022-09-28T12:01:44.348Z,2.20
2022-09-28T12:04:37.240Z,1.23
2022-09-28T12:07:16.418Z,1.90
2022-09-28T12:09:57.094Z,1.00
2022-09-28T12:12:32.815Z,1.70
2022-09-28T12:15:13.181Z,0.85
2022-09-28T12:17:51.278Z,1.23
2022-09-28T12:20:31.078Z,11.98
2022-09-28T12:23:47.275Z,13.25
2022-09-28T12:26:37.332Z,2.83
2022-09-28T12:29:24.860Z,1.50
2022-09-28T12:31:58.541Z,1.08
2022-09-28T12:34:25.847Z,1.20
2022-09-28T12:37:37.385Z,6.47
2022-09-28T12:41:02.848Z,24.98
2022-09-28T12:44:07.705Z,1.42
2022-09-28T12:47:18.502Z,2.45
2022-09-28T12:53:53.325Z,1.10
2022-09-28T12:57:05.448Z,1.83
2022-09-28T13:09:20.361Z,1.27
2022-09-28T13:15:16.131Z,1.45
2022-09-28T13:21:16.962Z,2.28
2022-09-28T13:23:50.653Z,1.55
2022-09-28T13:26:50.497Z,0.95
2022-09-28T13:29:21.664Z,0.73
2022-09-28T13:31:56.123Z,1.40
2022-09-28T13:37:26.443Z,1.25
2022-09-28T13:39:56.869Z,1.70
2022-09-28T13:43:00.697Z,5.57
2022-09-28T13:45:54.470Z,1.10
2022-09-28T13:48:37.665Z,1.40
2022-09-28T13:51:49.613Z,1.17
2022-09-28T13:57:41.876Z,1.38
2022-09-28T14:00:26.511Z,0.75
2022-09-28T14:03:04.765Z,0.90
2022-09-28T14:05:47.049Z,1.10
2022-09-28T14:08:48.367Z,1.63
2022-09-28T14:11:59.390Z,1.00
2022-09-28T14:17:51.800Z,6.93
2022-09-28T14:20:21.739Z,13.80
2022-09-28T14:23:25.798Z,1.58
2022-09-28T14:29:37.322Z,1.20
2022-09-28T14:32:21.834Z,1.00
2022-09-28T14:34:57.401Z,1.00
2022-09-28T14:37:52.747Z,1.77
2022-09-28T14:40:50.048Z,1.52
2022-09-28T14:44:07.759Z,1.65
2022-09-28T14:46:46.056Z,2.47
2022-09-28T14:49:48.576Z,1.38
2022-09-28T14:52:19.519Z,1.58
2022-09-28T14:54:54.814Z,1.23
2022-09-28T14:57:29.200Z,1.60
2022-09-28T14:59:59.874Z,1.75
2022-09-28T15:02:32.179Z,1.38
2022-09-28T15:05:24.227Z,1.13
2022-09-28T15:07:53.754Z,0.93
2022-09-28T15:10:39.338Z,2.33
2022-09-28T15:13:19.027Z,1.52
2022-09-28T15:15:50.636Z,0.90
2022-09-28T15:19:01.293Z,0.80
2022-09-28T15:23:59.905Z,1.50
2022-09-28T15:26:31.849Z,1.27
2022-09-28T15:28:59.990Z,1.25
2022-09-28T15:31:30.603Z,1.98
2022-09-28T15:34:16.373Z,2.55
2022-09-28T15:36:47.106Z,2.60
2022-09-28T15:39:19.128Z,1.25
2022-09-28T15:41:48.057Z,1.17
2022-09-28T15:44:33.210Z,1.10
2022-09-28T15:47:25.340Z,0.90
2022-09-28T15:50:28.798Z,1.85
2022-09-28T15:53:04.861Z,4.55
2022-09-28T15:55:45.353Z,3.75
2022-09-28T15:58:23.140Z,1.20
2022-09-28T16:01:11.274Z,1.42
2022-09-28T16:03:38.368Z,1.70
2022-09-28T16:06:09.273Z,1.20
2022-09-28T16:08:42.334Z,1.77
2022-09-28T16:11:25.034Z,1.13
2022-09-28T16:14:02.799Z,1.70
2022-09-28T16:16:34.326Z,1.67
2022-09-28T16:19:02.457Z,1.67
2022-09-28T16:21:51.339Z,1.35
2022-09-28T16:24:21.432Z,1.35
2022-09-28T16:26:54.782Z,1.15
2022-09-28T16:29:43.136Z,1.30
2022-09-28T16:32:49.908Z,1.60
2022-09-28T16:35:49.512Z,1.20
2022-09-28T16:38:18.385Z,1.77
2022-09-28T16:40:50.864Z,1.27
2022-09-28T16:43:30.465Z,1.02
2022-09-28T16:46:00.258Z,1.05
2022-09-28T16:48:29.361Z,1.50
2022-09-28T16:50:57.482Z,1.20
2022-09-28T16:53:44.217Z,0.88
2022-09-28T16:56:12.603Z,1.52
2022-09-28T16:58:39.923Z,1.17
2022-09-28T17:01:10.397Z,1.30
2022-09-28T17:03:37.474Z,2.22
2022-09-28T17:06:08.743Z,0.98
2022-09-28T17:08:36.331Z,1.48
2022-09-28T17:11:24.052Z,1.13
2022-09-28T17:13:52.018Z,1.88
2022-09-28T17:16:37.261Z,1.75
2022-09-28T17:19:22.722Z,1.20
2022-09-28T17:21:51.217Z,1.10
2022-09-28T17:24:20.632Z,1.45
2022-09-28T17:26:50.024Z,1.33
2022-09-28T17:29:17.533Z,1.75
2022-09-28T17:31:46.456Z,2.13
2022-09-28T17:34:18.159Z,1.17
2022-09-28T17:36:45.611Z,1.27
2022-09-28T17:39:14.978Z,2.13
2022-09-28T17:41:41.881Z,1.20
2022-09-28T17:44:08.928Z,1.80
2022-09-28T17:46:46.078Z,0.98
2022-09-28T17:49:13.159Z,1.30
2022-09-28T17:51:40.075Z,1.17
2022-09-28T17:54:08.355Z,2.00
2022-09-28T17:56:36.770Z,1.65
2022-09-28T17:59:10.335Z,1.13
2022-09-28T18:01:39.742Z,1.40
2022-09-28T18:04:09.057Z,1.50
2022-09-28T18:06:39.673Z,1.50
2022-09-28T18:09:06.620Z,1.48
2022-09-28T18:11:33.949Z,1.52
2022-09-28T18:14:01.166Z,1.10
2022-09-28T18:16:29.118Z,1.15
2022-09-28T18:18:56.491Z,1.08
2022-09-28T18:21:23.461Z,1.08
2022-09-28T18:23:50.749Z,1.38
2022-09-28T18:26:19.832Z,1.45
2022-09-28T18:28:47.295Z,1.48
2022-09-28T18:31:15.976Z,1.20
2022-09-28T18:33:43.529Z,1.45
2022-09-28T18:36:10.571Z,2.67
2022-09-28T18:38:38.488Z,1.63
2022-09-28T18:41:17.058Z,1.20
2022-09-28T18:43:49.655Z,1.20
2022-09-28T18:46:18.465Z,0.80
2022-09-28T18:48:46.500Z,1.17
2022-09-28T18:51:14.108Z,1.30
2022-09-28T18:53:41.272Z,1.23
2022-09-28T18:56:10.986Z,1.20
2022-09-28T18:58:39.896Z,3.13
2022-09-28T19:01:31.561Z,1.48
2022-09-28T19:04:00.663Z,1.38
2022-09-28T19:06:28.679Z,1.75
2022-09-28T19:08:57.014Z,1.30
2022-09-28T19:11:24.947Z,1.38
2022-09-28T19:13:53.854Z,1.20
2022-09-28T19:16:24.225Z,2.58
2022-09-28T19:18:53.831Z,1.55
2022-09-28T19:21:21.548Z,2.50
2022-09-28T19:23:53.730Z,1.60
2022-09-28T19:26:24.124Z,1.77
2022-09-28T19:28:51.070Z,1.35
2022-09-28T19:31:18.677Z,2.55
2022-09-28T19:33:46.677Z,1.48
2022-09-28T19:36:23.822Z,1.80
2022-09-28T19:38:52.382Z,1.70
2022-09-28T19:41:44.382Z,1.75
2022-09-28T19:44:27.670Z,1.35
2022-09-28T19:47:11.323Z,1.40
2022-09-28T19:49:40.110Z,1.60
2022-09-28T19:52:16.128Z,1.10
2022-09-28T19:54:57.574Z,1.60
2022-09-28T19:59:56.691Z,1.98
2022-09-28T20:02:26.504Z,2.17
2022-09-28T20:04:53.510Z,1.80
2022-09-28T20:07:20.978Z,1.58
2022-09-28T20:09:48.054Z,1.08
2022-09-28T20:12:14.999Z,2.00
2022-09-28T20:14:41.901Z,1.80
2022-09-28T20:17:09.809Z,1.60
2022-09-28T20:19:36.866Z,1.48
2022-09-28T20:22:04.272Z,1.50
2022-09-28T20:24:31.563Z,1.30
2022-09-28T20:26:59.213Z,1.88
2022-09-28T20:29:26.878Z,2.10
2022-09-28T20:31:53.909Z,1.40
2022-09-28T20:34:20.852Z,1.40
2022-09-28T20:36:48.416Z,1.67
2022-09-28T20:39:15.477Z,1.52
2022-09-28T20:41:42.526Z,1.85
2022-09-28T20:44:10.083Z,1.40
2022-09-28T20:46:37.506Z,1.65
2022-09-28T20:49:05.503Z,1.40
2022-09-28T20:51:32.533Z,1.38
2022-09-28T20:54:00.089Z,1.15
2022-09-28T20:56:37.824Z,1.67
2022-09-28T20:59:10.482Z,2.17
2022-09-28T21:01:38.373Z,1.67
2022-09-28T21:04:07.446Z,1.50
2022-09-28T21:06:36.621Z,1.80
2022-09-28T21:09:04.870Z,1.60
2022-09-28T21:11:33.379Z,1.65
2022-09-28T21:14:02.340Z,2.08
2022-09-28T21:16:32.448Z,1.63
2022-09-28T21:18:59.739Z,2.07
2022-09-28T21:21:27.365Z,1.77
2022-09-28T21:23:56.011Z,1.58
2022-09-28T21:26:25.230Z,1.42
2022-09-28T21:28:58.079Z,2.00
2022-09-28T21:31:29.114Z,2.00
2022-09-28T21:33:57.655Z,1.77
2022-09-28T21:36:25.133Z,1.38
2022-09-28T21:38:53.681Z,1.70
2022-09-28T21:41:20.635Z,1.67
2022-09-28T21:43:47.537Z,2.33
2022-09-28T21:46:14.759Z,1.88
2022-09-28T21:48:41.801Z,1.60
2022-09-28T21:51:12.814Z,1.50
2022-09-28T21:56:10.385Z,1.63
2022-09-28T21:58:37.624Z,1.60
2022-09-28T22:01:12.342Z,2.05
2022-09-28T22:03:39.416Z,1.55
2022-09-28T22:06:07.255Z,1.70
2022-09-28T22:08:35.122Z,1.65
2022-09-28T22:11:08.411Z,1.98
2022-09-28T22:13:40.513Z,1.40
2022-09-28T22:16:08.455Z,1.98
2022-09-28T22:18:35.826Z,1.40
2022-09-28T22:21:12.875Z,1.65
2022-09-28T22:23:40.339Z,2.10
2022-09-28T22:26:13.987Z,3.67
2022-09-28T22:28:49.637Z,2.17
2022-09-28T22:31:18.302Z,3.05
2022-09-28T22:33:48.873Z,1.48
2022-09-28T22:36:16.830Z,2.00
2022-09-28T22:38:45.020Z,2.45
2022-09-28T22:41:12.983Z,2.03
2022-09-28T22:43:40.126Z,2.45
2022-09-28T22:46:09.716Z,2.22
2022-09-28T22:48:36.863Z,2.10
2022-09-28T22:51:06.479Z,1.70
2022-09-28T22:53:34.911Z,1.88
2022-09-28T22:56:05.728Z,2.20
2022-09-28T22:58:36.986Z,1.85
2022-09-28T23:01:11.447Z,1.70
2022-09-28T23:03:42.768Z,2.20
2022-09-28T23:06:11.076Z,2.00
2022-09-28T23:08:39.364Z,1.70
2022-09-28T23:11:06.592Z,2.33
2022-09-28T23:13:34.049Z,1.77
2022-09-28T23:16:08.917Z,1.75
2022-09-28T23:18:38.027Z,2.00
2022-09-28T23:21:06.848Z,1.40
2022-09-28T23:23:33.860Z,1.55
2022-09-28T23:26:09.417Z,1.65
2022-09-28T23:28:36.316Z,1.63
2022-09-28T23:31:18.806Z,1.60
2022-09-28T23:33:46.193Z,1.80
2022-09-28T23:36:13.449Z,1.30
2022-09-28T23:38:40.793Z,1.83
2022-09-28T23:41:08.383Z,1.42
2022-09-28T23:43:36.432Z,1.40
2022-09-28T23:46:04.457Z,2.17
2022-09-28T23:48:31.976Z,1.60
2022-09-28T23:50:59.045Z,1.30
2022-09-28T23:53:26.383Z,1.20
2022-09-28T23:55:54.797Z,1.63
2022-09-28T23:58:21.930Z,1.75
